createdAt,value
2023-02-28T00:02:17.859Z,32.70
2023-02-28T00:05:58.711Z,32.50
2023-02-28T00:09:31.513Z,27.70
2023-02-28T00:12:58.948Z,29.60
2023-02-28T00:16:36.452Z,35.10
2023-02-28T00:19:53.033Z,32.20
2023-02-28T00:23:25.188Z,33.70
2023-02-28T00:26:46.716Z,30.60
2023-02-28T00:30:34.531Z,32.70
2023-02-28T00:49:05.668Z,35.90
2023-02-28T00:52:54.628Z,35.40
2023-02-28T00:56:43.634Z,32.70
2023-02-28T00:59:44.726Z,30.90
2023-02-28T01:03:23.985Z,31.30
2023-02-28T01:06:31.436Z,34.80
2023-02-28T01:09:45.667Z,31.10
2023-02-28T01:13:24.350Z,31.30
2023-02-28T01:16:56.321Z,32.50
2023-02-28T01:20:46.919Z,32.30
2023-02-28T01:24:43.831Z,34.90
2023-02-28T01:28:31.587Z,26.90
2023-02-28T01:31:29.518Z,26.80
2023-02-28T01:35:04.430Z,29.30
2023-02-28T01:38:25.928Z,27.80
2023-02-28T01:42:15.111Z,29.20
2023-02-28T01:50:04.901Z,30.90
2023-02-28T01:53:40.438Z,29.70
2023-02-28T01:57:14.544Z,27.10
2023-02-28T02:00:15.980Z,31.30
2023-02-28T02:03:59.172Z,27.70
2023-02-28T02:07:33.068Z,25.50
2023-02-28T02:32:25.049Z,31.50
2023-02-28T02:35:57.609Z,27.10
2023-02-28T02:39:46.094Z,29.00
2023-02-28T02:43:10.613Z,24.90
2023-02-28T02:46:53.855Z,24.40
2023-02-28T02:50:06.108Z,22.20
2023-02-28T02:53:35.832Z,25.60
2023-02-28T02:56:56.257Z,19.90
2023-02-28T03:07:49.567Z,21.00
2023-02-28T03:11:24.604Z,19.60
2023-02-28T03:14:52.223Z,16.20
2023-02-28T03:18:31.520Z,17.60
2023-02-28T03:22:19.214Z,18.90
2023-02-28T03:25:47.786Z,23.30
2023-02-28T03:29:42.748Z,26.30
2023-02-28T03:33:27.698Z,27.60
2023-02-28T03:37:09.856Z,20.30
2023-02-28T03:40:41.110Z,19.90
2023-02-28T03:47:52.210Z,18.50
2023-02-28T04:02:44.456Z,26.30
2023-02-28T04:06:19.763Z,27.50
2023-02-28T04:09:51.883Z,30.20
2023-02-28T04:13:41.135Z,27.10
2023-02-28T04:17:21.255Z,35.00
2023-02-28T04:21:11.914Z,37.50
2023-02-28T04:43:06.070Z,28.50
2023-02-28T04:46:19.518Z,28.70
2023-02-28T04:49:26.787Z,24.40
2023-02-28T04:52:58.855Z,26.60
2023-02-28T04:56:19.450Z,22.00
2023-02-28T04:59:46.743Z,23.80
2023-02-28T05:03:17.307Z,21.90
2023-02-28T05:32:44.496Z,41.00
2023-02-28T05:40:24.387Z,38.00
2023-02-28T05:43:04.944Z,42.60
2023-02-28T05:46:19.884Z,46.80
2023-02-28T05:48:56.917Z,45.30
2023-02-28T05:52:19.515Z,46.90
2023-02-28T05:55:38.361Z,52.30
2023-02-28T05:58:48.629Z,54.30
2023-02-28T06:02:26.050Z,45.80
2023-02-28T06:06:21.011Z,49.50
2023-02-28T06:08:55.159Z,46.40
2023-02-28T06:12:27.081Z,50.80
2023-02-28T06:15:44.959Z,51.90
2023-02-28T06:19:09.348Z,54.10
2023-02-28T06:22:21.305Z,46.60
2023-02-28T06:25:35.216Z,59.60
2023-02-28T06:28:09.083Z,59.40
2023-02-28T06:31:30.054Z,60.30
2023-02-28T06:34:13.112Z,53.30
2023-02-28T06:37:16.232Z,54.30
2023-02-28T06:40:29.295Z,51.70
2023-02-28T06:43:58.088Z,54.60
2023-02-28T06:47:05.547Z,52.40
2023-02-28T06:50:07.856Z,54.70
2023-02-28T06:53:21.374Z,58.20
2023-02-28T06:57:10.363Z,53.00
2023-02-28T07:00:23.883Z,59.90
2023-02-28T07:03:48.638Z,46.60
2023-02-28T07:07:11.824Z,60.10
2023-02-28T07:10:20.369Z,55.20
2023-02-28T07:13:45.723Z,57.00
2023-02-28T07:17:24.849Z,55.50
2023-02-28T07:20:46.817Z,52.30
2023-02-28T07:23:35.120Z,59.80
2023-02-28T07:26:07.952Z,59.40
2023-02-28T07:29:19.813Z,54.70
2023-02-28T07:32:57.622Z,49.60
2023-02-28T07:36:41.676Z,52.40
2023-02-28T07:40:00.194Z,48.20
2023-02-28T08:14:11.763Z,27.60
2023-02-28T08:16:50.451Z,27.80
2023-02-28T08:20:05.338Z,27.30
2023-02-28T08:22:45.907Z,24.00
2023-02-28T08:26:19.167Z,26.40
2023-02-28T08:29:14.277Z,26.90
2023-02-28T08:32:31.617Z,28.00
2023-02-28T08:35:45.959Z,23.90
2023-02-28T08:38:19.741Z,38.10
2023-02-28T08:40:48.252Z,28.30
2023-02-28T08:43:32.196Z,27.00
2023-02-28T08:46:35.645Z,31.70
2023-02-28T08:49:20.508Z,27.30
2023-02-28T08:52:01.174Z,29.20
2023-02-28T08:55:19.305Z,28.90
2023-02-28T08:58:02.270Z,26.70
2023-02-28T09:00:42.985Z,25.60
2023-02-28T09:03:42.936Z,22.70
2023-02-28T09:06:43.996Z,25.10
2023-02-28T09:10:22.192Z,22.30
2023-02-28T09:13:30.682Z,21.80
2023-02-28T09:16:33.480Z,20.10
2023-02-28T09:19:23.352Z,17.00
2023-02-28T09:22:32.014Z,19.40
2023-02-28T09:25:57.502Z,16.00
2023-02-28T09:29:15.772Z,16.60
2023-02-28T09:31:44.707Z,17.70
2023-02-28T09:34:56.250Z,21.70
2023-02-28T09:37:32.425Z,19.00
2023-02-28T09:40:25.823Z,18.10
2023-02-28T09:42:59.881Z,20.60
2023-02-28T09:45:38.213Z,20.10
2023-02-28T09:48:46.744Z,18.50
2023-02-28T09:52:11.687Z,17.40
2023-02-28T09:55:06.377Z,19.90
2023-02-28T09:59:02.503Z,18.30
2023-02-28T10:02:27.748Z,17.20
2023-02-28T10:05:53.199Z,20.60
2023-02-28T10:09:36.784Z,17.30
2023-02-28T10:12:23.072Z,22.20
2023-02-28T10:15:35.486Z,19.70
2023-02-28T10:18:49.415Z,19.00
2023-02-28T10:22:23.297Z,20.50
2023-02-28T11:02:22.170Z,20.50
2023-02-28T11:05:03.528Z,19.30
2023-02-28T11:07:52.585Z,23.20
2023-02-28T11:11:13.052Z,17.30
2023-02-28T11:14:16.108Z,20.20
2023-02-28T11:17:28.891Z,18.30
2023-02-28T11:20:40.583Z,18.70
2023-02-28T11:23:57.129Z,17.80
2023-02-28T11:27:22.716Z,22.10
2023-02-28T11:30:41.598Z,18.50
2023-02-28T11:34:20.393Z,20.00
2023-02-28T11:37:35.972Z,17.60
2023-02-28T11:41:14.057Z,19.10
2023-02-28T11:44:17.804Z,21.30
2023-02-28T11:47:09.699Z,19.90
2023-02-28T11:50:18.600Z,17.20
2023-02-28T11:54:13.518Z,20.00
2023-02-28T11:57:16.161Z,21.10
2023-02-28T12:00:54.271Z,19.10
2023-02-28T12:04:14.892Z,17.10
2023-02-28T12:07:01.699Z,22.90
2023-02-28T12:10:26.658Z,19.40
2023-02-28T12:15:57.339Z,24.20
2023-02-28T12:19:33.744Z,17.60
2023-02-28T12:23:30.031Z,19.50
2023-02-28T12:26:52.806Z,18.50
2023-02-28T12:30:21.798Z,22.50
2023-02-28T12:33:09.986Z,36.20
2023-02-28T12:36:09.232Z,19.20
2023-02-28T12:39:14.017Z,17.90
2023-02-28T12:42:30.445Z,18.60
2023-02-28T12:46:21.355Z,16.30
2023-02-28T12:49:12.333Z,19.40
2023-02-28T12:52:07.371Z,18.70
2023-02-28T12:55:07.004Z,17.90
2023-02-28T12:58:27.100Z,17.60
2023-02-28T13:01:48.012Z,16.10
2023-02-28T13:05:33.664Z,20.20
2023-02-28T13:08:46.994Z,19.80
2023-02-28T13:12:25.395Z,20.00
2023-02-28T13:15:30.574Z,16.10
2023-02-28T13:18:43.788Z,20.50
2023-02-28T13:21:44.920Z,18.80
2023-02-28T13:25:05.033Z,18.40
2023-02-28T13:28:05.122Z,22.10
2023-02-28T13:31:19.527Z,16.70
2023-02-28T13:34:55.255Z,29.10
2023-02-28T13:38:10.761Z,67.90
2023-02-28T13:40:58.990Z,32.70
2023-02-28T13:44:29.890Z,55.50
2023-02-28T13:47:29.445Z,59.20
2023-02-28T13:50:43.079Z,61.30
2023-02-28T13:54:15.837Z,53.70
2023-02-28T13:57:52.775Z,37.50
2023-02-28T14:01:26.486Z,60.30
2023-02-28T14:31:00.548Z,20.30
2023-02-28T14:34:12.601Z,24.10
2023-02-28T14:37:51.982Z,24.40
2023-02-28T14:40:54.941Z,22.70
2023-02-28T14:44:37.367Z,27.50
2023-02-28T14:47:49.677Z,34.40
2023-02-28T14:51:00.463Z,50.60
2023-02-28T14:54:34.746Z,51.60
2023-02-28T14:57:55.319Z,59.70
2023-02-28T15:00:48.304Z,33.80
2023-02-28T15:04:01.526Z,32.40
2023-02-28T15:07:30.389Z,22.90
2023-02-28T15:10:38.508Z,22.50
2023-02-28T15:13:59.900Z,25.50
2023-02-28T15:20:50.847Z,29.10
2023-02-28T15:24:35.498Z,25.50
2023-02-28T15:27:46.181Z,23.00
2023-02-28T15:30:55.092Z,27.40
2023-02-28T15:34:33.672Z,30.30
2023-02-28T15:38:07.146Z,21.90
2023-02-28T15:42:02.667Z,22.90
2023-02-28T15:44:38.547Z,23.00
2023-02-28T15:47:28.088Z,28.20
2023-02-28T15:50:19.507Z,25.70
2023-02-28T15:52:51.413Z,22.80
2023-02-28T15:56:31.327Z,22.70
2023-02-28T15:59:43.011Z,27.10
2023-02-28T16:02:16.976Z,26.80
2023-02-28T16:05:29.010Z,26.40
2023-02-28T16:08:20.054Z,24.30
2023-02-28T16:11:31.944Z,26.90
2023-02-28T16:15:03.475Z,27.90
2023-02-28T16:18:35.642Z,33.60
2023-02-28T16:21:06.772Z,30.80
2023-02-28T16:24:55.985Z,31.70
2023-02-28T16:28:01.418Z,27.80
2023-02-28T16:31:26.231Z,29.20
2023-02-28T16:34:00.445Z,34.40
2023-02-28T16:37:29.720Z,27.50
2023-02-28T16:40:37.157Z,37.20
2023-02-28T16:44:29.596Z,42.40
2023-02-28T16:48:18.510Z,43.40
2023-02-28T16:51:56.288Z,43.30
2023-02-28T16:55:08.145Z,36.30
2023-02-28T16:58:43.596Z,43.40
2023-02-28T17:18:05.580Z,57.00
2023-02-28T17:21:56.118Z,61.20
2023-02-28T17:40:47.067Z,100.00
2023-02-28T17:44:20.827Z,93.60
2023-02-28T17:48:09.975Z,87.60
2023-02-28T17:51:35.350Z,78.20
2023-02-28T17:55:04.429Z,76.60
2023-02-28T17:58:44.707Z,76.80
2023-02-28T18:01:39.095Z,79.30
2023-02-28T18:05:17.286Z,77.40
2023-02-28T18:08:46.897Z,76.40
2023-02-28T18:12:25.126Z,82.80
2023-02-28T18:15:39.926Z,95.40
2023-02-28T18:19:20.400Z,82.70
2023-02-28T18:22:30.634Z,84.80
2023-02-28T18:25:45.245Z,95.30
2023-02-28T18:29:36.619Z,119.40
2023-02-28T18:48:02.326Z,74.10
2023-02-28T18:50:43.161Z,96.50
2023-02-28T18:53:32.923Z,98.10
2023-02-28T18:56:27.616Z,98.80
2023-02-28T18:59:18.154Z,85.90
2023-02-28T19:01:49.162Z,83.60
2023-02-28T19:04:40.018Z,82.20
2023-02-28T19:07:40.305Z,75.80
2023-02-28T19:10:25.006Z,81.50
2023-02-28T19:13:20.235Z,69.90
2023-02-28T19:19:13.672Z,65.60
2023-02-28T19:22:24.274Z,58.70
2023-02-28T19:25:14.509Z,70.50
2023-02-28T19:27:47.759Z,58.50
2023-02-28T19:30:28.501Z,60.00
2023-02-28T19:33:44.845Z,65.10
2023-02-28T19:37:20.416Z,67.70
2023-02-28T19:40:05.044Z,61.80
2023-02-28T19:43:35.867Z,63.90
2023-02-28T19:46:54.057Z,144.60
2023-02-28T19:49:55.407Z,132.70
2023-02-28T19:53:12.187Z,147.40
2023-02-28T19:56:05.923Z,133.90
2023-02-28T19:58:56.810Z,118.00
2023-02-28T20:01:48.305Z,110.90
2023-02-28T20:05:04.382Z,102.40
2023-02-28T20:07:55.713Z,103.50
2023-02-28T20:10:49.862Z,101.70
2023-02-28T20:13:38.994Z,112.00
2023-02-28T20:16:47.464Z,107.80
2023-02-28T20:20:05.168Z,129.20
2023-02-28T20:23:30.788Z,125.70
2023-02-28T20:26:36.825Z,104.90
2023-02-28T20:29:36.483Z,108.30
2023-02-28T20:32:54.803Z,102.70
2023-02-28T20:36:42.527Z,149.10
2023-02-28T20:40:06.370Z,161.80
2023-02-28T20:43:45.446Z,165.50
2023-02-28T20:47:05.678Z,180.80
2023-02-28T20:50:46.968Z,165.30
2023-02-28T20:54:05.595Z,221.40
2023-02-28T20:57:47.324Z,195.90
2023-02-28T21:01:40.316Z,192.40
2023-02-28T21:05:27.115Z,205.00
2023-02-28T21:09:17.609Z,177.30
2023-02-28T21:24:29.205Z,188.40
2023-02-28T21:28:03.571Z,215.50
2023-02-28T21:31:33.932Z,179.60
2023-02-28T21:35:12.886Z,372.70
2023-02-28T21:38:53.638Z,319.30
2023-02-28T21:42:41.910Z,186.00
2023-02-28T21:46:17.373Z,180.90
2023-02-28T21:54:11.898Z,158.40
2023-02-28T21:57:59.403Z,137.80
2023-02-28T22:01:47.428Z,186.60
2023-02-28T22:05:28.448Z,270.20
2023-02-28T22:09:16.066Z,177.50
2023-02-28T22:12:55.659Z,166.50
2023-02-28T22:16:54.324Z,146.60
2023-02-28T22:20:23.086Z,184.80
2023-02-28T22:27:20.478Z,242.30
2023-02-28T22:31:04.878Z,318.90
2023-02-28T22:34:47.003Z,286.80
2023-02-28T22:49:52.412Z,189.90
2023-02-28T22:53:40.048Z,186.60
2023-02-28T22:57:00.402Z,171.50
2023-02-28T23:00:48.614Z,140.80
2023-02-28T23:04:07.673Z,182.80
2023-02-28T23:07:48.221Z,156.20
2023-02-28T23:11:24.699Z,152.50
2023-02-28T23:14:42.861Z,169.20
2023-02-28T23:18:11.545Z,168.90
2023-02-28T23:21:59.817Z,181.90
2023-02-28T23:25:38.883Z,153.30
2023-02-28T23:29:21.731Z,143.20
2023-02-28T23:40:37.995Z,155.40
2023-02-28T23:44:26.984Z,159.30
2023-02-28T23:48:16.024Z,165.80
2023-02-28T23:51:50.941Z,211.90
2023-02-28T23:55:38.624Z,216.40
2023-02-28T23:59:09.839Z,186.40
